sensor_id;sensor_type;location;lat;lon;timestamp;pressure;altitude;pressure_sealevel;temperature;humidity
36748;BME280;22716;51.556;5.080;2022-10-16T00:02:23;100792.84;;;13.44;100.00
36748;BME280;22716;51.556;5.080;2022-10-16T00:04:55;100790.22;;;13.44;100.00
36748;BME280;22716;51.556;5.080;2022-10-16T00:07:23;100792.00;;;13.42;100.00
36748;BME280;22716;51.556;5.080;2022-10-16T00:09:52;100796.44;;;13.40;100.00
36748;BME280;22716;51.556;5.080;2022-10-16T00:12:22;100795.56;;;13.41;100.00
36748;BME280;22716;51.556;5.080;2022-10-16T00:14:53;100784.31;;;13.33;100.00
36748;BME280;22716;51.556;5.080;2022-10-16T00:17:22;100795.63;;;13.38;100.00
36748;BME280;22716;51.556;5.080;2022-10-16T00:19:54;100785.13;;;13.36;100.00
36748;BME280;22716;51.556;5.080;2022-10-16T00:22:42;100806.09;;;13.39;100.00
36748;BME280;22716;51.556;5.080;2022-10-16T00:25:14;100796.50;;;13.37;100.00
36748;BME280;22716;51.556;5.080;2022-10-16T00:27:43;100794.69;;;13.39;100.00
36748;BME280;22716;51.556;5.080;2022-10-16T00:30:13;100793.81;;;13.40;100.00
36748;BME280;22716;51.556;5.080;2022-10-16T00:32:42;100790.38;;;13.38;100.00
36748;BME280;22716;51.556;5.080;2022-10-16T00:35:14;100793.00;;;13.38;100.00
36748;BME280;22716;51.556;5.080;2022-10-16T00:37:42;100784.22;;;13.37;100.00
36748;BME280;22716;51.556;5.080;2022-10-16T00:40:11;100788.56;;;13.40;100.00
36748;BME280;22716;51.556;5.080;2022-10-16T00:42:40;100787.72;;;13.38;100.00
36748;BME280;22716;51.556;5.080;2022-10-16T00:45:10;100787.75;;;13.36;100.00
36748;BME280;22716;51.556;5.080;2022-10-16T00:47:42;100776.53;;;13.28;100.00
36748;BME280;22716;51.556;5.080;2022-10-16T00:53:04;100787.69;;;13.39;100.00
36748;BME280;22716;51.556;5.080;2022-10-16T00:55:33;100793.75;;;13.43;100.00
36748;BME280;22716;51.556;5.080;2022-10-16T00:58:04;100798.06;;;13.45;100.00
36748;BME280;22716;51.556;5.080;2022-10-16T01:00:33;100802.47;;;13.45;100.00
36748;BME280;22716;51.556;5.080;2022-10-16T01:03:02;100798.97;;;13.44;100.00
36748;BME280;22716;51.556;5.080;2022-10-16T01:05:43;100796.25;;;13.49;100.00
36748;BME280;22716;51.556;5.080;2022-10-16T01:08:29;100806.72;;;13.51;100.00
36748;BME280;22716;51.556;5.080;2022-10-16T01:11:10;100805.03;;;13.48;100.00
36748;BME280;22716;51.556;5.080;2022-10-16T01:13:51;100799.69;;;13.51;100.00
36748;BME280;22716;51.556;5.080;2022-10-16T01:16:31;100795.28;;;13.53;100.00
36748;BME280;22716;51.556;5.080;2022-10-16T01:19:09;100802.25;;;13.54;100.00
36748;BME280;22716;51.556;5.080;2022-10-16T01:21:46;100793.53;;;13.52;100.00
36748;BME280;22716;51.556;5.080;2022-10-16T01:24:33;100801.38;;;13.55;100.00
36748;BME280;22716;51.556;5.080;2022-10-16T01:27:12;100796.09;;;13.55;100.00
36748;BME280;22716;51.556;5.080;2022-10-16T01:29:50;100787.31;;;13.56;100.00
36748;BME280;22716;51.556;5.080;2022-10-16T01:32:30;100786.44;;;13.56;100.00
36748;BME280;22716;51.556;5.080;2022-10-16T01:35:11;100802.25;;;13.54;100.00
36748;BME280;22716;51.556;5.080;2022-10-16T01:38:04;100803.19;;;13.52;100.00
36748;BME280;22716;51.556;5.080;2022-10-16T01:40:47;100812.84;;;13.53;100.00
36748;BME280;22716;51.556;5.080;2022-10-16T01:43:31;100791.00;;;13.47;100.00
36748;BME280;22716;51.556;5.080;2022-10-16T01:46:05;100783.97;;;13.48;100.00
36748;BME280;22716;51.556;5.080;2022-10-16T01:48:35;100777.00;;;13.47;100.00
36748;BME280;22716;51.556;5.080;2022-10-16T01:51:08;100766.69;;;13.38;100.00
36748;BME280;22716;51.556;5.080;2022-10-16T01:53:39;100772.00;;;13.35;100.00
36748;BME280;22716;51.556;5.080;2022-10-16T01:56:14;100789.31;;;13.45;100.00
36748;BME280;22716;51.556;5.080;2022-10-16T01:59:00;100800.69;;;13.45;100.00
36748;BME280;22716;51.556;5.080;2022-10-16T02:01:36;100786.78;;;13.40;100.00
36748;BME280;22716;51.556;5.080;2022-10-16T02:04:13;100781.59;;;13.37;100.00
36748;BME280;22716;51.556;5.080;2022-10-16T02:06:47;100799.91;;;13.42;100.00
36748;BME280;22716;51.556;5.080;2022-10-16T02:09:16;100799.00;;;13.43;100.00
36748;BME280;22716;51.556;5.080;2022-10-16T02:11:45;100816.63;;;13.41;100.00
36748;BME280;22716;51.556;5.080;2022-10-16T02:14:17;100815.66;;;13.43;100.00
36748;BME280;22716;51.556;5.080;2022-10-16T02:16:51;100800.78;;;13.42;100.00
36748;BME280;22716;51.556;5.080;2022-10-16T02:19:21;100797.25;;;13.43;100.00
36748;BME280;22716;51.556;5.080;2022-10-16T02:21:58;100790.31;;;13.39;100.00
36748;BME280;22716;51.556;5.080;2022-10-16T02:24:36;100803.41;;;13.42;100.00
36748;BME280;22716;51.556;5.080;2022-10-16T02:27:13;100794.78;;;13.36;100.00
36748;BME280;22716;51.556;5.080;2022-10-16T02:29:52;100798.19;;;13.41;100.00
36748;BME280;22716;51.556;5.080;2022-10-16T02:32:28;100816.63;;;13.41;100.00
36748;BME280;22716;51.556;5.080;2022-10-16T02:34:59;100811.41;;;13.38;100.00
36748;BME280;22716;51.556;5.080;2022-10-16T02:37:29;100807.97;;;13.34;100.00
36748;BME280;22716;51.556;5.080;2022-10-16T02:39:59;100792.34;;;13.27;100.00
36748;BME280;22716;51.556;5.080;2022-10-16T02:42:38;100788.69;;;13.34;100.00
36748;BME280;22716;51.556;5.080;2022-10-16T02:45:11;100801.84;;;13.34;100.00
36748;BME280;22716;51.556;5.080;2022-10-16T02:47:40;100793.22;;;13.27;100.00
36748;BME280;22716;51.556;5.080;2022-10-16T02:50:09;100791.53;;;13.25;100.00
36748;BME280;22716;51.556;5.080;2022-10-16T02:52:38;100797.53;;;13.30;100.00
36748;BME280;22716;51.556;5.080;2022-10-16T02:55:19;100794.88;;;13.31;100.00
36748;BME280;22716;51.556;5.080;2022-10-16T02:57:48;100800.16;;;13.30;100.00
36748;BME280;22716;51.556;5.080;2022-10-16T03:00:20;100799.34;;;13.28;100.00
36748;BME280;22716;51.556;5.080;2022-10-16T03:02:50;100799.41;;;13.25;100.00
36748;BME280;22716;51.556;5.080;2022-10-16T03:05:19;100801.22;;;13.23;100.00
36748;BME280;22716;51.556;5.080;2022-10-16T03:07:48;100793.34;;;13.21;100.00
36748;BME280;22716;51.556;5.080;2022-10-16T03:10:19;100793.28;;;13.24;100.00
36748;BME280;22716;51.556;5.080;2022-10-16T03:12:49;100798.53;;;13.24;100.00
36748;BME280;22716;51.556;5.080;2022-10-16T03:15:20;100793.41;;;13.20;100.00
36748;BME280;22716;51.556;5.080;2022-10-16T03:17:54;100811.81;;;13.20;100.00
36748;BME280;22716;51.556;5.080;2022-10-16T03:20:23;100821.44;;;13.21;100.00
36748;BME280;22716;51.556;5.080;2022-10-16T03:22:52;100822.34;;;13.18;100.00
36748;BME280;22716;51.556;5.080;2022-10-16T03:25:22;100833.72;;;13.20;100.00
36748;BME280;22716;51.556;5.080;2022-10-16T03:27:53;100835.50;;;13.18;100.00
36748;BME280;22716;51.556;5.080;2022-10-16T03:30:25;100832.81;;;13.21;100.00
36748;BME280;22716;51.556;5.080;2022-10-16T03:32:53;100835.44;;;13.21;100.00
36748;BME280;22716;51.556;5.080;2022-10-16T03:35:23;100823.22;;;13.20;100.00
36748;BME280;22716;51.556;5.080;2022-10-16T03:37:52;100818.00;;;13.17;100.00
36748;BME280;22716;51.556;5.080;2022-10-16T03:40:22;100832.00;;;13.19;100.00
36748;BME280;22716;51.556;5.080;2022-10-16T03:42:52;100837.31;;;13.16;100.00
36748;BME280;22716;51.556;5.080;2022-10-16T03:45:25;100839.94;;;13.18;100.00
36748;BME280;22716;51.556;5.080;2022-10-16T03:47:54;100842.56;;;13.16;100.00
36748;BME280;22716;51.556;5.080;2022-10-16T03:50:23;100830.38;;;13.12;100.00
36748;BME280;22716;51.556;5.080;2022-10-16T03:52:54;100847.84;;;13.16;100.00
36748;BME280;22716;51.556;5.080;2022-10-16T03:55:24;100846.06;;;13.17;100.00
36748;BME280;22716;51.556;5.080;2022-10-16T03:57:52;100859.25;;;13.15;100.00
36748;BME280;22716;51.556;5.080;2022-10-16T04:00:21;100847.09;;;13.10;100.00
36748;BME280;22716;51.556;5.080;2022-10-16T04:02:53;100845.19;;;13.18;100.00
36748;BME280;22716;51.556;5.080;2022-10-16T04:05:22;100853.91;;;13.20;100.00
36748;BME280;22716;51.556;5.080;2022-10-16T04:07:51;100851.28;;;13.18;100.00
36748;BME280;22716;51.556;5.080;2022-10-16T04:10:21;100850.50;;;13.15;100.00
36748;BME280;22716;51.556;5.080;2022-10-16T04:12:50;100853.91;;;13.20;100.00
36748;BME280;22716;51.556;5.080;2022-10-16T04:15:20;100866.22;;;13.18;100.00
36748;BME280;22716;51.556;5.080;2022-10-16T04:17:53;100866.25;;;13.16;100.00
36748;BME280;22716;51.556;5.080;2022-10-16T04:20:22;100862.88;;;13.10;100.00
36748;BME280;22716;51.556;5.080;2022-10-16T04:22:52;100866.31;;;13.15;100.00
36748;BME280;22716;51.556;5.080;2022-10-16T04:25:20;100868.06;;;13.13;100.00
36748;BME280;22716;51.556;5.080;2022-10-16T04:27:52;100857.53;;;13.13;100.00
36748;BME280;22716;51.556;5.080;2022-10-16T04:30:21;100860.22;;;13.11;100.00
36748;BME280;22716;51.556;5.080;2022-10-16T04:32:54;100866.41;;;13.09;100.00
36748;BME280;22716;51.556;5.080;2022-10-16T04:35:23;100879.53;;;13.10;100.00
36748;BME280;22716;51.556;5.080;2022-10-16T04:37:52;100886.53;;;13.10;100.00
36748;BME280;22716;51.556;5.080;2022-10-16T04:40:21;100883.97;;;13.08;100.00
36748;BME280;22716;51.556;5.080;2022-10-16T04:42:50;100894.47;;;13.07;100.00
36748;BME280;22716;51.556;5.080;2022-10-16T04:45:19;100903.28;;;13.04;100.00
36748;BME280;22716;51.556;5.080;2022-10-16T04:47:47;100907.66;;;13.04;100.00
36748;BME280;22716;51.556;5.080;2022-10-16T04:50:19;100912.97;;;13.02;100.00
36748;BME280;22716;51.556;5.080;2022-10-16T04:52:48;100904.31;;;12.97;100.00
36748;BME280;22716;51.556;5.080;2022-10-16T04:55:17;100918.25;;;13.01;100.00
36748;BME280;22716;51.556;5.080;2022-10-16T04:57:46;100890.38;;;12.92;100.00
36748;BME280;22716;51.556;5.080;2022-10-16T05:00:15;100899.94;;;12.96;100.00
36748;BME280;22716;51.556;5.080;2022-10-16T05:02:44;100903.50;;;12.93;100.00
36748;BME280;22716;51.556;5.080;2022-10-16T05:05:13;100895.75;;;12.86;100.00
36748;BME280;22716;51.556;5.080;2022-10-16T05:07:51;100908.78;;;12.92;100.00
36748;BME280;22716;51.556;5.080;2022-10-16T05:10:20;100910.56;;;12.91;100.00
36748;BME280;22716;51.556;5.080;2022-10-16T05:12:53;100902.75;;;12.87;100.00
36748;BME280;22716;51.556;5.080;2022-10-16T05:15:22;100909.75;;;12.88;100.00
36748;BME280;22716;51.556;5.080;2022-10-16T05:17:53;100921.16;;;12.87;100.00
36748;BME280;22716;51.556;5.080;2022-10-16T05:20:22;100925.53;;;12.88;100.00
36748;BME280;22716;51.556;5.080;2022-10-16T05:22:54;100933.44;;;12.86;100.00
36748;BME280;22716;51.556;5.080;2022-10-16T05:25:24;100929.09;;;12.85;100.00
36748;BME280;22716;51.556;5.080;2022-10-16T05:27:53;100931.72;;;12.85;100.00
36748;BME280;22716;51.556;5.080;2022-10-16T05:30:22;100936.06;;;12.86;100.00
36748;BME280;22716;51.556;5.080;2022-10-16T05:32:51;100946.56;;;12.86;100.00
36748;BME280;22716;51.556;5.080;2022-10-16T05:35:21;100950.06;;;12.88;100.00
36748;BME280;22716;51.556;5.080;2022-10-16T05:37:50;100946.56;;;12.86;100.00
36748;BME280;22716;51.556;5.080;2022-10-16T05:40:21;100953.59;;;12.86;100.00
36748;BME280;22716;51.556;5.080;2022-10-16T05:42:55;100962.41;;;12.85;100.00
36748;BME280;22716;51.556;5.080;2022-10-16T05:45:24;100966.72;;;12.87;100.00
36748;BME280;22716;51.556;5.080;2022-10-16T05:47:54;100968.53;;;12.85;100.00
36748;BME280;22716;51.556;5.080;2022-10-16T05:50:23;100968.59;;;12.82;100.00
36748;BME280;22716;51.556;5.080;2022-10-16T05:52:52;100983.50;;;12.80;100.00
36748;BME280;22716;51.556;5.080;2022-10-16T05:55:24;100981.78;;;12.78;100.00
36748;BME280;22716;51.556;5.080;2022-10-16T05:57:54;100985.28;;;12.78;100.00
36748;BME280;22716;51.556;5.080;2022-10-16T06:00:24;100983.59;;;12.74;100.00
36748;BME280;22716;51.556;5.080;2022-10-16T06:02:55;100994.09;;;12.76;100.00
36748;BME280;22716;51.556;5.080;2022-10-16T06:05:43;100988.91;;;12.73;100.00
36748;BME280;22716;51.556;5.080;2022-10-16T06:08:13;100997.66;;;12.73;100.00
36748;BME280;22716;51.556;5.080;2022-10-16T06:10:45;101001.22;;;12.71;100.00
36748;BME280;22716;51.556;5.080;2022-10-16T06:13:14;101005.56;;;12.72;100.00
36748;BME280;22716;51.556;5.080;2022-10-16T06:15:45;101016.13;;;12.70;100.00
36748;BME280;22716;51.556;5.080;2022-10-16T06:18:14;101008.22;;;12.70;100.00
36748;BME280;22716;51.556;5.080;2022-10-16T06:20:42;101026.63;;;12.70;100.00
36748;BME280;22716;51.556;5.080;2022-10-16T06:23:12;101024.00;;;12.70;100.00
36748;BME280;22716;51.556;5.080;2022-10-16T06:25:44;101026.63;;;12.70;100.00
36748;BME280;22716;51.556;5.080;2022-10-16T06:28:14;101027.50;;;12.69;100.00
36748;BME280;22716;51.556;5.080;2022-10-16T06:30:42;101021.47;;;12.64;100.00
36748;BME280;22716;51.556;5.080;2022-10-16T06:33:12;101043.28;;;12.71;100.00
36748;BME280;22716;51.556;5.080;2022-10-16T06:35:41;101044.13;;;12.71;100.00
36748;BME280;22716;51.556;5.080;2022-10-16T06:38:13;101042.31;;;12.76;100.00
36748;BME280;22716;51.556;5.080;2022-10-16T06:40:45;101038.72;;;12.80;100.00
36748;BME280;22716;51.556;5.080;2022-10-16T06:43:14;101050.94;;;12.84;100.00
36748;BME280;22716;51.556;5.080;2022-10-16T06:45:49;101032.56;;;12.81;100.00
36748;BME280;22716;51.556;5.080;2022-10-16T06:48:18;101046.34;;;12.96;100.00
36748;BME280;22716;51.556;5.080;2022-10-16T06:50:56;101062.91;;;13.02;100.00
36748;BME280;22716;51.556;5.080;2022-10-16T06:53:28;101062.03;;;13.03;100.00
36748;BME280;22716;51.556;5.080;2022-10-16T06:56:12;101067.16;;;13.11;100.00
36748;BME280;22716;51.556;5.080;2022-10-16T06:58:57;101069.66;;;13.20;100.00
36748;BME280;22716;51.556;5.080;2022-10-16T07:01:28;101077.44;;;13.24;100.00
36748;BME280;22716;51.556;5.080;2022-10-16T07:03:58;101074.75;;;13.29;100.00
36748;BME280;22716;51.556;5.080;2022-10-16T07:06:30;101089.19;;;13.56;100.00
36748;BME280;22716;51.556;5.080;2022-10-16T07:09:03;101096.91;;;13.65;100.00
36748;BME280;22716;51.556;5.080;2022-10-16T07:11:37;101094.44;;;13.54;100.00
36748;BME280;22716;51.556;5.080;2022-10-16T07:14:15;101103.38;;;13.45;100.00
36748;BME280;22716;51.556;5.080;2022-10-16T07:16:44;101112.09;;;13.47;100.00
36748;BME280;22716;51.556;5.080;2022-10-16T07:19:14;101107.63;;;13.54;100.00
36748;BME280;22716;51.556;5.080;2022-10-16T07:21:44;101118.03;;;13.60;100.00
36748;BME280;22716;51.556;5.080;2022-10-16T07:24:14;101125.88;;;13.65;100.00
36748;BME280;22716;51.556;5.080;2022-10-16T07:26:55;101126.63;;;13.70;100.00
36748;BME280;22716;51.556;5.080;2022-10-16T07:29:24;101135.34;;;13.73;100.00
36748;BME280;22716;51.556;5.080;2022-10-16T07:31:54;101134.38;;;13.77;100.00
36748;BME280;22716;51.556;5.080;2022-10-16T07:34:23;101136.88;;;13.85;100.00
36748;BME280;22716;51.556;5.080;2022-10-16T07:36:55;101135.84;;;13.92;100.00
36748;BME280;22716;51.556;5.080;2022-10-16T07:39:24;101132.22;;;13.97;100.00
36748;BME280;22716;51.556;5.080;2022-10-16T07:41:57;101139.19;;;14.01;100.00
36748;BME280;22716;51.556;5.080;2022-10-16T07:44:28;101130.41;;;14.02;100.00
36748;BME280;22716;51.556;5.080;2022-10-16T07:46:57;101140.81;;;14.09;100.00
36748;BME280;22716;51.556;5.080;2022-10-16T07:49:26;101144.22;;;14.14;100.00
36748;BME280;22716;51.556;5.080;2022-10-16T07:51:55;101152.94;;;14.17;100.00
36748;BME280;22716;51.556;5.080;2022-10-16T07:54:24;101159.84;;;14.21;100.00
36748;BME280;22716;51.556;5.080;2022-10-16T07:56:56;101169.41;;;14.27;100.00
36748;BME280;22716;51.556;5.080;2022-10-16T07:59:25;101171.16;;;14.28;100.00
36748;BME280;22716;51.556;5.080;2022-10-16T08:01:54;101181.66;;;14.32;100.00
36748;BME280;22716;51.556;5.080;2022-10-16T08:04:22;101182.50;;;14.31;100.00
36748;BME280;22716;51.556;5.080;2022-10-16T08:06:51;101200.03;;;14.35;100.00
36748;BME280;22716;51.556;5.080;2022-10-16T08:09:20;101189.41;;;14.38;100.00
36748;BME280;22716;51.556;5.080;2022-10-16T08:11:50;101205.97;;;14.45;100.00
36748;BME280;22716;51.556;5.080;2022-10-16T08:14:22;101209.47;;;14.47;100.00
36748;BME280;22716;51.556;5.080;2022-10-16T08:16:51;101198.03;;;14.46;100.00
36748;BME280;22716;51.556;5.080;2022-10-16T08:19:20;101205.78;;;14.54;100.00
36748;BME280;22716;51.556;5.080;2022-10-16T08:21:49;101205.56;;;14.65;100.00
36748;BME280;22716;51.556;5.080;2022-10-16T08:24:18;101213.56;;;14.60;100.00
36748;BME280;22716;51.556;5.080;2022-10-16T08:26:48;101219.59;;;14.67;100.00
36748;BME280;22716;51.556;5.080;2022-10-16T08:29:17;101219.66;;;14.64;100.00
36748;BME280;22716;51.556;5.080;2022-10-16T08:31:49;101207.41;;;14.61;100.00
36748;BME280;22716;51.556;5.080;2022-10-16T08:34:18;101236.09;;;14.76;100.00
36748;BME280;22716;51.556;5.080;2022-10-16T08:36:52;101234.34;;;14.75;100.00
36748;BME280;22716;51.556;5.080;2022-10-16T08:39:23;101244.69;;;14.84;100.00
36748;BME280;22716;51.556;5.080;2022-10-16T08:42:21;101253.44;;;14.88;100.00
36748;BME280;22716;51.556;5.080;2022-10-16T08:45:24;101256.00;;;14.89;100.00
36748;BME280;22716;51.556;5.080;2022-10-16T08:48:15;101248.00;;;14.94;100.00
36748;BME280;22716;51.556;5.080;2022-10-16T08:50:48;101251.47;;;14.96;100.00
36748;BME280;22716;51.556;5.080;2022-10-16T08:53:22;101253.03;;;15.04;100.00
36748;BME280;22716;51.556;5.080;2022-10-16T08:55:57;101246.88;;;15.05;100.00
36748;BME280;22716;51.556;5.080;2022-10-16T08:58:29;101253.81;;;15.09;100.00
36748;BME280;22716;51.556;5.080;2022-10-16T09:01:00;101253.66;;;15.17;100.00
36748;BME280;22716;51.556;5.080;2022-10-16T09:04:15;101260.63;;;15.20;100.00
36748;BME280;22716;51.556;5.080;2022-10-16T09:07:09;101263.34;;;15.17;100.00
36748;BME280;22716;51.556;5.080;2022-10-16T09:10:06;101270.16;;;15.25;100.00
36748;BME280;22716;51.556;5.080;2022-10-16T09:12:45;101258.66;;;15.29;100.00
36748;BME280;22716;51.556;5.080;2022-10-16T09:15:29;101262.13;;;15.30;100.00
36748;BME280;22716;51.556;5.080;2022-10-16T09:18:10;101257.59;;;15.36;100.00
36748;BME280;22716;51.556;5.080;2022-10-16T09:20:49;101270.53;;;15.48;100.00
36748;BME280;22716;51.556;5.080;2022-10-16T09:23:25;101264.28;;;15.52;100.00
36748;BME280;22716;51.556;5.080;2022-10-16T09:26:21;101263.50;;;15.49;100.00
36748;BME280;22716;51.556;5.080;2022-10-16T09:28:53;101280.88;;;15.57;100.00
36748;BME280;22716;51.556;5.080;2022-10-16T09:31:23;101285.94;;;15.66;100.00
36748;BME280;22716;51.556;5.080;2022-10-16T09:33:54;101285.75;;;15.74;100.00
36748;BME280;22716;51.556;5.080;2022-10-16T09:36:30;101284.72;;;15.80;100.00
36748;BME280;22716;51.556;5.080;2022-10-16T09:39:10;101284.56;;;15.86;100.00
36748;BME280;22716;51.556;5.080;2022-10-16T09:41:41;101282.66;;;15.92;100.00
36748;BME280;22716;51.556;5.080;2022-10-16T09:44:28;101282.63;;;15.94;100.00
36748;BME280;22716;51.556;5.080;2022-10-16T09:47:03;101276.34;;;15.98;100.00
36748;BME280;22716;51.556;5.080;2022-10-16T09:49:32;101284.16;;;16.02;100.00
36748;BME280;22716;51.556;5.080;2022-10-16T09:52:29;101292.91;;;16.04;100.00
36748;BME280;22716;51.556;5.080;2022-10-16T09:55:02;101253.81;;;15.83;100.00
36748;BME280;22716;51.556;5.080;2022-10-16T09:57:31;101297.16;;;16.11;100.00
36748;BME280;22716;51.556;5.080;2022-10-16T10:00:15;101294.28;;;16.19;100.00
36748;BME280;22716;51.556;5.080;2022-10-16T10:03:09;101288.28;;;16.12;100.00
36748;BME280;22716;51.556;5.080;2022-10-16T10:05:39;101303.91;;;16.21;100.00
36748;BME280;22716;51.556;5.080;2022-10-16T10:08:18;101283.47;;;16.28;100.00
36748;BME280;22716;51.556;5.080;2022-10-16T10:10:50;101289.50;;;16.33;100.00
36748;BME280;22716;51.556;5.080;2022-10-16T10:13:40;101293.81;;;16.37;100.00
36748;BME280;22716;51.556;5.080;2022-10-16T10:16:10;101305.19;;;16.41;100.00
36748;BME280;22716;51.556;5.080;2022-10-16T10:18:58;101300.66;;;16.44;100.00
36748;BME280;22716;51.556;5.080;2022-10-16T10:21:28;101313.69;;;16.52;100.00
36748;BME280;22716;51.556;5.080;2022-10-16T10:24:00;101316.97;;;16.61;100.00
36748;BME280;22716;51.556;5.080;2022-10-16T10:26:35;101317.47;;;16.74;100.00
36748;BME280;22716;51.556;5.080;2022-10-16T10:29:07;101307.69;;;16.77;100.00
36748;BME280;22716;51.556;5.080;2022-10-16T10:31:55;101321.28;;;16.96;100.00
36748;BME280;22716;51.556;5.080;2022-10-16T10:34:47;101317.69;;;16.97;100.00
36748;BME280;22716;51.556;5.080;2022-10-16T10:37:30;101317.59;;;17.00;100.00
36748;BME280;22716;51.556;5.080;2022-10-16T10:40:15;101331.50;;;17.08;100.00
36748;BME280;22716;51.556;5.080;2022-10-16T10:42:57;101325.19;;;17.12;100.00
36748;BME280;22716;51.556;5.080;2022-10-16T10:45:43;101324.19;;;17.16;99.88
36748;BME280;22716;51.556;5.080;2022-10-16T10:48:27;101327.47;;;17.24;98.92
36748;BME280;22716;51.556;5.080;2022-10-16T10:51:18;101332.53;;;17.32;97.82
36748;BME280;22716;51.556;5.080;2022-10-16T10:53:54;101336.03;;;17.32;97.16
36748;BME280;22716;51.556;5.080;2022-10-16T10:56:42;101335.16;;;17.32;96.77
36748;BME280;22716;51.556;5.080;2022-10-16T11:00:01;101343.19;;;17.30;96.67
36748;BME280;22716;51.556;5.080;2022-10-16T11:02:37;101337.00;;;17.30;97.39
36748;BME280;22716;51.556;5.080;2022-10-16T11:05:19;101331.31;;;17.44;96.24
36748;BME280;22716;51.556;5.080;2022-10-16T11:07:53;101338.03;;;17.55;96.08
36748;BME280;22716;51.556;5.080;2022-10-16T11:10:27;101342.19;;;17.64;95.23
36748;BME280;22716;51.556;5.080;2022-10-16T11:13:08;101343.69;;;17.71;94.85
36748;BME280;22716;51.556;5.080;2022-10-16T11:15:41;101335.25;;;17.86;93.45
36748;BME280;22716;51.556;5.080;2022-10-16T11:18:21;101333.03;;;18.00;92.98
36748;BME280;22716;51.556;5.080;2022-10-16T11:20:54;101335.88;;;18.20;92.05
36748;BME280;22716;51.556;5.080;2022-10-16T11:23:29;101338.59;;;18.19;91.59
36748;BME280;22716;51.556;5.080;2022-10-16T11:26:11;101335.22;;;18.14;91.58
36748;BME280;22716;51.556;5.080;2022-10-16T11:28:49;101343.19;;;18.14;91.48
36748;BME280;22716;51.556;5.080;2022-10-16T11:31:26;101339.91;;;18.06;91.00
36748;BME280;22716;51.556;5.080;2022-10-16T11:34:04;101358.63;;;18.01;91.01
36748;BME280;22716;51.556;5.080;2022-10-16T11:36:41;101351.38;;;18.06;90.37
36748;BME280;22716;51.556;5.080;2022-10-16T11:39:22;101353.50;;;18.23;89.55
36748;BME280;22716;51.556;5.080;2022-10-16T11:41:59;101362.97;;;18.30;89.74
36748;BME280;22716;51.556;5.080;2022-10-16T11:44:44;101357.41;;;18.37;89.43
36748;BME280;22716;51.556;5.080;2022-10-16T11:47:33;101355.88;;;18.30;89.32
36748;BME280;22716;51.556;5.080;2022-10-16T11:50:17;101356.06;;;18.24;90.19
36748;BME280;22716;51.556;5.080;2022-10-16T11:53:00;101368.22;;;18.31;90.10
36748;BME280;22716;51.556;5.080;2022-10-16T11:55:38;101366.47;;;18.30;89.69
36748;BME280;22716;51.556;5.080;2022-10-16T11:58:20;101356.25;;;18.20;89.71
36748;BME280;22716;51.556;5.080;2022-10-16T12:00:59;101352.16;;;18.10;89.92
36748;BME280;22716;51.556;5.080;2022-10-16T12:03:38;101358.78;;;18.23;89.15
36748;BME280;22716;51.556;5.080;2022-10-16T12:06:22;101360.75;;;18.42;88.07
36748;BME280;22716;51.556;5.080;2022-10-16T12:08:54;101370.66;;;18.37;88.51
36748;BME280;22716;51.556;5.080;2022-10-16T12:11:32;101369.34;;;18.24;88.04
36748;BME280;22716;51.556;5.080;2022-10-16T12:14:33;101367.88;;;18.16;88.47
36748;BME280;22716;51.556;5.080;2022-10-16T12:17:33;101370.78;;;18.08;88.58
36748;BME280;22716;51.556;5.080;2022-10-16T12:20:23;101363.88;;;18.03;89.14
36748;BME280;22716;51.556;5.080;2022-10-16T12:22:59;101370.88;;;18.05;89.19
36748;BME280;22716;51.556;5.080;2022-10-16T12:25:31;101369.22;;;18.01;89.10
36748;BME280;22716;51.556;5.080;2022-10-16T12:28:17;101368.25;;;18.04;89.22
36748;BME280;22716;51.556;5.080;2022-10-16T12:30:53;101369.75;;;18.12;89.30
36748;BME280;22716;51.556;5.080;2022-10-16T12:33:28;101343.31;;;18.09;88.53
36748;BME280;22716;51.556;5.080;2022-10-16T12:36:00;101363.97;;;18.26;88.06
36748;BME280;22716;51.556;5.080;2022-10-16T12:38:37;101367.34;;;18.31;87.68
36748;BME280;22716;51.556;5.080;2022-10-16T12:41:08;101364.09;;;18.23;88.13
36748;BME280;22716;51.556;5.080;2022-10-16T12:43:42;101366.75;;;18.23;88.78
36748;BME280;22716;51.556;5.080;2022-10-16T12:46:43;101363.97;;;18.26;88.50
36748;BME280;22716;51.556;5.080;2022-10-16T12:49:35;101363.81;;;18.30;88.08
36748;BME280;22716;51.556;5.080;2022-10-16T12:52:25;101355.38;;;18.19;88.27
36748;BME280;22716;51.556;5.080;2022-10-16T12:54:56;101352.50;;;18.25;88.09
36748;BME280;22716;51.556;5.080;2022-10-16T12:57:38;101341.59;;;18.34;86.80
36748;BME280;22716;51.556;5.080;2022-10-16T13:00:23;101357.03;;;18.48;86.54
36748;BME280;22716;51.556;5.080;2022-10-16T13:05:57;101348.13;;;18.51;83.72
36748;BME280;22716;51.556;5.080;2022-10-16T13:08:43;101361.88;;;18.62;82.95
36748;BME280;22716;51.556;5.080;2022-10-16T13:14:46;101353.69;;;18.68;81.26
36748;BME280;22716;51.556;5.080;2022-10-16T13:17:29;101371.03;;;18.78;80.81
36748;BME280;22716;51.556;5.080;2022-10-16T13:20:12;101371.84;;;18.80;80.82
36748;BME280;22716;51.556;5.080;2022-10-16T13:22:55;101368.31;;;18.79;80.74
36748;BME280;22716;51.556;5.080;2022-10-16T13:25:39;101327.88;;;18.46;80.77
36748;BME280;22716;51.556;5.080;2022-10-16T13:28:13;101379.31;;;18.69;80.90
36748;BME280;22716;51.556;5.080;2022-10-16T13:30:44;101386.28;;;18.73;81.64
36748;BME280;22716;51.556;5.080;2022-10-16T13:33:32;101360.28;;;18.56;81.49